createdAt,value
2019-04-25T00:01:08.825Z,15.05
2019-04-25T00:02:21.401Z,15.04
2019-04-25T00:03:28.119Z,15.00
2019-04-25T00:04:33.205Z,14.97
2019-04-25T00:05:38.767Z,14.94
2019-04-25T00:06:44.017Z,14.92
2019-04-25T00:07:51.464Z,14.90
2019-04-25T00:08:56.423Z,14.88
2019-04-25T00:10:01.667Z,14.86
2019-04-25T00:11:07.218Z,14.85
2019-04-25T00:12:12.628Z,14.83
2019-04-25T00:13:18.299Z,14.82
2019-04-25T00:14:23.635Z,14.80
2019-04-25T00:15:29.010Z,14.80
2019-04-25T00:16:35.529Z,14.82
2019-04-25T00:17:42.054Z,14.79
2019-04-25T00:18:47.460Z,14.79
2019-04-25T00:19:52.813Z,14.76
2019-04-25T00:21:02.386Z,14.75
2019-04-25T00:22:25.193Z,14.73
2019-04-25T00:23:31.729Z,14.71
2019-04-25T00:24:57.356Z,14.70
2019-04-25T00:26:21.286Z,14.68
2019-04-25T00:27:26.449Z,14.67
2019-04-25T00:28:31.783Z,14.65
2019-04-25T00:29:36.755Z,14.62
2019-04-25T00:30:43.462Z,14.60
2019-04-25T00:31:49.303Z,14.58
2019-04-25T00:32:54.758Z,14.57
2019-04-25T00:33:59.719Z,14.55
2019-04-25T00:35:04.915Z,14.55
2019-04-25T00:36:10.052Z,14.54
2019-04-25T00:37:15.114Z,14.54
2019-04-25T00:38:20.159Z,14.52
2019-04-25T00:39:26.005Z,14.52
2019-04-25T00:40:31.873Z,14.51
2019-04-25T00:41:37.359Z,14.51
2019-04-25T00:42:43.578Z,14.49
2019-04-25T00:43:51.118Z,14.49
2019-04-25T00:44:56.289Z,14.48
2019-04-25T00:46:01.661Z,14.46
2019-04-25T00:47:07.120Z,14.46
2019-04-25T00:48:12.346Z,14.46
2019-04-25T00:49:17.429Z,14.46
2019-04-25T00:50:22.515Z,14.45
2019-04-25T00:51:27.419Z,14.43
2019-04-25T00:52:32.520Z,14.44
2019-04-25T00:53:37.546Z,14.44
2019-04-25T00:54:43.167Z,14.42
2019-04-25T00:55:48.650Z,14.42
2019-04-25T00:56:53.880Z,14.41
2019-04-25T00:58:05.656Z,14.39
2019-04-25T00:59:25.705Z,14.38
2019-04-25T01:00:41.568Z,14.36
2019-04-25T01:02:07.509Z,14.36
2019-04-25T01:03:14.966Z,14.34
2019-04-25T01:04:21.794Z,14.31
2019-04-25T01:05:26.977Z,14.29
2019-04-25T01:06:32.105Z,14.28
2019-04-25T01:07:39.857Z,14.29
2019-04-25T01:08:45.777Z,14.29
2019-04-25T01:09:52.431Z,14.30
2019-04-25T01:10:58.164Z,14.29
2019-04-25T01:12:04.079Z,14.29
2019-04-25T01:13:09.330Z,14.28
2019-04-25T01:14:14.487Z,14.27
2019-04-25T01:15:21.462Z,14.26
2019-04-25T01:16:26.484Z,14.27
2019-04-25T01:17:31.589Z,14.26
2019-04-25T01:18:37.450Z,14.27
2019-04-25T01:19:44.913Z,14.27
2019-04-25T01:20:50.079Z,14.26
2019-04-25T01:21:56.039Z,14.27
2019-04-25T01:23:01.427Z,14.26
2019-04-25T01:24:08.152Z,14.25
2019-04-25T01:25:13.797Z,14.24
2019-04-25T01:26:19.336Z,14.23
2019-04-25T01:27:24.687Z,14.22
2019-04-25T01:28:29.672Z,14.22
2019-04-25T01:29:34.744Z,14.21
2019-04-25T01:30:40.470Z,14.19
2019-04-25T01:31:46.507Z,14.19
2019-04-25T01:32:53.955Z,14.18
2019-04-25T01:33:58.919Z,14.18
2019-04-25T01:35:13.972Z,14.18
2019-04-25T01:36:38.822Z,14.18
2019-04-25T01:38:14.841Z,14.18
2019-04-25T01:39:39.281Z,14.16
2019-04-25T01:40:53.425Z,14.14
2019-04-25T01:42:06.450Z,14.09
2019-04-25T01:43:39.554Z,14.07
2019-04-25T01:44:45.878Z,14.07
2019-04-25T01:45:51.821Z,14.06
2019-04-25T01:46:56.974Z,14.04
2019-04-25T01:48:03.486Z,14.04
2019-04-25T01:49:08.925Z,14.04
2019-04-25T01:50:14.258Z,14.04
2019-04-25T01:51:19.861Z,14.02
2019-04-25T01:52:24.849Z,14.01
2019-04-25T01:53:29.982Z,14.01
2019-04-25T01:54:37.362Z,14.01
2019-04-25T01:55:53.693Z,14.00
2019-04-25T01:56:49.429Z,13.98
2019-04-25T01:57:55.164Z,13.98
2019-04-25T01:59:01.580Z,13.97
2019-04-25T02:00:07.325Z,13.96
2019-04-25T02:01:14.341Z,13.95
2019-04-25T02:02:23.615Z,13.96
2019-04-25T02:03:28.789Z,13.96
2019-04-25T02:04:34.190Z,13.95
2019-04-25T02:05:39.298Z,13.95
2019-04-25T02:06:44.439Z,13.93
2019-04-25T02:07:49.409Z,13.94
2019-04-25T02:08:56.201Z,13.93
2019-04-25T02:10:01.683Z,13.90
2019-04-25T02:11:43.918Z,13.90
2019-04-25T02:12:55.260Z,13.90
2019-04-25T02:14:01.123Z,13.89
2019-04-25T02:15:06.560Z,13.87
2019-04-25T02:16:11.609Z,13.86
2019-04-25T02:17:16.938Z,13.85
2019-04-25T02:18:23.714Z,13.84
2019-04-25T02:19:29.197Z,13.83
2019-04-25T02:20:34.806Z,13.83
2019-04-25T02:21:40.175Z,13.82
2019-04-25T02:22:45.652Z,13.82
2019-04-25T02:23:51.743Z,13.81
2019-04-25T02:24:58.264Z,13.81
2019-04-25T02:26:15.174Z,13.81
2019-04-25T02:27:10.511Z,13.80
2019-04-25T02:28:15.942Z,13.80
2019-04-25T02:29:20.988Z,13.79
2019-04-25T02:30:26.269Z,13.79
2019-04-25T02:31:31.452Z,13.78
2019-04-25T02:32:37.189Z,13.79
2019-04-25T02:33:44.258Z,13.78
2019-04-25T02:34:48.966Z,13.80
2019-04-25T02:35:57.873Z,13.80
2019-04-25T02:37:04.223Z,13.81
2019-04-25T02:38:09.035Z,13.80
2019-04-25T02:39:20.191Z,13.81
2019-04-25T02:40:25.433Z,13.80
2019-04-25T02:41:34.862Z,13.80
2019-04-25T02:42:40.564Z,13.78
2019-04-25T02:43:45.617Z,13.79
2019-04-25T02:45:00.599Z,13.80
2019-04-25T02:46:25.345Z,13.79
2019-04-25T02:47:43.796Z,13.79
2019-04-25T02:49:28.966Z,13.76
2019-04-25T02:50:37.952Z,13.75
2019-04-25T02:52:02.344Z,13.75
2019-04-25T02:53:14.317Z,13.73
2019-04-25T02:54:19.318Z,13.70
2019-04-25T02:55:35.067Z,13.69
2019-04-25T02:56:37.672Z,13.69
2019-04-25T02:57:38.089Z,13.69
2019-04-25T02:58:44.315Z,13.68
2019-04-25T02:59:49.567Z,13.68
2019-04-25T03:01:02.812Z,13.68
2019-04-25T03:02:05.792Z,13.68
2019-04-25T03:03:10.239Z,13.68
2019-04-25T03:04:15.242Z,13.69
2019-04-25T03:05:20.743Z,13.70
2019-04-25T03:06:25.872Z,13.70
2019-04-25T03:07:31.068Z,13.69
2019-04-25T03:08:36.293Z,13.69
2019-04-25T03:09:45.219Z,13.70
2019-04-25T03:10:50.393Z,13.69
2019-04-25T03:11:55.616Z,13.69
2019-04-25T03:13:02.098Z,13.70
2019-04-25T03:14:09.907Z,13.71
2019-04-25T03:15:14.988Z,13.71
2019-04-25T03:16:20.281Z,13.71
2019-04-25T03:17:25.213Z,13.72
2019-04-25T03:18:31.871Z,13.73
2019-04-25T03:19:59.897Z,13.73
2019-04-25T03:21:21.299Z,13.73
2019-04-25T03:22:28.328Z,13.72
2019-04-25T03:23:37.218Z,13.71
2019-04-25T03:24:42.297Z,13.71
2019-04-25T03:25:47.705Z,13.71
2019-04-25T03:26:53.257Z,13.71
2019-04-25T03:27:59.434Z,13.71
2019-04-25T03:29:05.971Z,13.72
2019-04-25T03:30:14.872Z,13.72
2019-04-25T03:31:23.018Z,13.73
2019-04-25T03:32:28.365Z,13.73
2019-04-25T03:33:37.795Z,13.72
2019-04-25T03:34:39.957Z,13.72
2019-04-25T03:35:45.139Z,13.71
2019-04-25T03:36:50.155Z,13.72
2019-04-25T03:37:55.392Z,13.72
2019-04-25T03:39:00.897Z,13.73
2019-04-25T03:40:07.577Z,13.72
2019-04-25T03:41:14.658Z,13.72
2019-04-25T03:42:19.945Z,13.72
2019-04-25T03:43:25.140Z,13.72
2019-04-25T03:44:30.486Z,13.71
2019-04-25T03:45:35.781Z,13.71
2019-04-25T03:46:40.691Z,13.72
2019-04-25T03:47:46.104Z,13.70
2019-04-25T03:48:51.035Z,13.71
2019-04-25T03:49:56.434Z,13.71
2019-04-25T03:51:02.213Z,13.71
2019-04-25T03:52:08.322Z,13.71
2019-04-25T03:53:13.993Z,13.70
2019-04-25T03:54:19.096Z,13.70
2019-04-25T03:55:24.160Z,13.71
2019-04-25T03:56:29.153Z,13.70
2019-04-25T03:57:34.127Z,13.71
2019-04-25T03:58:39.108Z,13.68
2019-04-25T03:59:44.476Z,13.67
2019-04-25T04:00:49.600Z,13.65
2019-04-25T04:01:55.127Z,13.63
2019-04-25T04:03:00.144Z,13.63
2019-04-25T04:04:06.710Z,13.64
2019-04-25T04:05:13.905Z,13.63
2019-04-25T04:06:18.988Z,13.62
2019-04-25T04:07:24.004Z,13.62
2019-04-25T04:08:28.932Z,13.61
2019-04-25T04:09:33.907Z,13.60
2019-04-25T04:10:40.633Z,13.59
2019-04-25T04:11:45.977Z,13.58
2019-04-25T04:12:51.374Z,13.57
2019-04-25T04:13:56.391Z,13.56
2019-04-25T04:15:01.664Z,13.57
2019-04-25T04:16:06.840Z,13.56
2019-04-25T04:17:17.993Z,13.56
2019-04-25T04:18:41.120Z,13.55
2019-04-25T04:19:55.587Z,13.55
2019-04-25T04:21:16.283Z,13.54
2019-04-25T04:22:35.732Z,13.53
2019-04-25T04:23:45.038Z,13.52
2019-04-25T04:24:53.877Z,13.49
2019-04-25T04:25:58.905Z,13.49
2019-04-25T04:27:09.172Z,13.48
2019-04-25T04:28:14.993Z,13.49
2019-04-25T04:29:19.918Z,13.48
2019-04-25T04:30:24.926Z,13.50
2019-04-25T04:31:30.263Z,13.51
2019-04-25T04:32:35.351Z,13.51
2019-04-25T04:33:40.617Z,13.50
2019-04-25T04:34:45.684Z,13.50
2019-04-25T04:35:50.696Z,13.50
2019-04-25T04:36:55.617Z,13.50
2019-04-25T04:38:00.591Z,13.52
2019-04-25T04:39:07.775Z,13.52
2019-04-25T04:40:16.016Z,13.54
2019-04-25T04:41:20.237Z,13.54
2019-04-25T04:42:25.542Z,13.55
2019-04-25T04:43:34.272Z,13.55
2019-04-25T04:44:39.567Z,13.58
2019-04-25T04:45:45.645Z,13.57
2019-04-25T04:46:50.697Z,13.56
2019-04-25T04:47:56.271Z,13.58
2019-04-25T04:49:01.970Z,13.58
2019-04-25T04:50:08.905Z,13.59
2019-04-25T04:51:14.858Z,13.60
2019-04-25T04:52:23.473Z,13.62
2019-04-25T04:53:27.805Z,13.63
2019-04-25T04:54:34.461Z,13.64
2019-04-25T04:55:39.590Z,13.66
2019-04-25T04:56:44.843Z,13.66
2019-04-25T04:57:49.774Z,13.67
2019-04-25T04:58:54.764Z,13.67
2019-04-25T05:00:00.077Z,13.68
2019-04-25T05:01:05.130Z,13.68
2019-04-25T05:02:18.789Z,13.71
2019-04-25T05:03:37.142Z,13.72
2019-04-25T05:05:07.195Z,13.75
2019-04-25T05:06:17.356Z,13.76
2019-04-25T05:07:44.032Z,13.78
2019-04-25T05:08:53.236Z,13.79
2019-04-25T05:09:59.193Z,13.80
2019-04-25T05:11:04.312Z,13.82
2019-04-25T05:12:09.295Z,13.83
2019-04-25T05:13:15.732Z,13.86
2019-04-25T05:14:21.685Z,13.87
2019-04-25T05:15:26.816Z,13.89
2019-04-25T05:16:33.196Z,13.91
2019-04-25T05:17:38.596Z,13.93
2019-04-25T05:18:43.844Z,13.94
2019-04-25T05:19:48.859Z,13.97
2019-04-25T05:20:54.340Z,13.99
2019-04-25T05:21:59.311Z,14.01
2019-04-25T05:23:04.243Z,14.02
2019-04-25T05:24:09.228Z,14.02
2019-04-25T05:25:16.341Z,14.03
2019-04-25T05:26:21.600Z,14.03
2019-04-25T05:27:37.515Z,14.03
2019-04-25T05:28:33.530Z,14.03
2019-04-25T05:29:38.529Z,14.03
2019-04-25T05:30:58.879Z,14.01
2019-04-25T05:32:04.332Z,14.02
2019-04-25T05:33:09.294Z,14.04
2019-04-25T05:34:15.666Z,14.04
2019-04-25T05:35:21.955Z,14.05
2019-04-25T05:36:37.535Z,14.05
2019-04-25T05:37:43.604Z,14.10
2019-04-25T05:38:49.031Z,14.15
2019-04-25T05:39:54.093Z,14.22
2019-04-25T05:41:03.965Z,14.29
2019-04-25T05:42:19.074Z,14.35
2019-04-25T05:43:25.693Z,14.43
2019-04-25T05:44:30.851Z,14.50
2019-04-25T05:45:35.995Z,14.56
2019-04-25T05:46:41.323Z,14.61
2019-04-25T05:47:46.436Z,14.66
2019-04-25T05:48:53.768Z,14.70
2019-04-25T05:49:58.854Z,14.71
2019-04-25T05:51:04.050Z,14.74
2019-04-25T05:52:08.988Z,14.74
2019-04-25T05:53:14.287Z,14.74
2019-04-25T05:54:19.284Z,14.76
2019-04-25T05:55:25.246Z,14.81
2019-04-25T05:56:30.860Z,14.85
2019-04-25T05:57:45.509Z,14.90
2019-04-25T05:58:51.151Z,14.95
2019-04-25T05:59:56.186Z,14.99
2019-04-25T06:01:01.181Z,15.06
2019-04-25T06:02:06.387Z,15.12
2019-04-25T06:03:11.312Z,15.19
2019-04-25T06:04:17.842Z,15.27
2019-04-25T06:05:25.929Z,15.31
2019-04-25T06:06:30.060Z,15.38
2019-04-25T06:07:35.830Z,15.44
2019-04-25T06:08:47.185Z,15.48
2019-04-25T06:10:08.399Z,15.53
2019-04-25T06:11:21.611Z,15.59
2019-04-25T06:12:34.959Z,15.66
2019-04-25T06:13:53.555Z,15.72
2019-04-25T06:14:58.637Z,15.76
2019-04-25T06:16:07.621Z,15.81
2019-04-25T06:17:16.776Z,15.83
2019-04-25T06:18:32.107Z,15.85
2019-04-25T06:19:50.001Z,15.86
2019-04-25T06:20:55.646Z,15.88
2019-04-25T06:22:00.644Z,15.89
2019-04-25T06:23:21.492Z,15.90
2019-04-25T06:24:38.120Z,15.91
2019-04-25T06:25:43.921Z,15.94
2019-04-25T06:27:16.928Z,15.94
2019-04-25T06:28:24.006Z,15.94
2019-04-25T06:29:29.813Z,15.92
2019-04-25T06:30:35.330Z,15.91
2019-04-25T06:31:40.874Z,15.90
2019-04-25T06:32:46.209Z,15.89
2019-04-25T06:33:53.767Z,15.89
2019-04-25T06:34:59.719Z,15.88
2019-04-25T06:36:05.215Z,15.88
2019-04-25T06:37:10.521Z,15.87
2019-04-25T06:38:15.454Z,15.86
2019-04-25T06:39:21.975Z,15.85
2019-04-25T06:40:29.711Z,15.85
2019-04-25T06:41:35.368Z,15.84
2019-04-25T06:42:40.547Z,15.83
2019-04-25T06:43:48.035Z,15.80
2019-04-25T06:45:14.800Z,15.80
2019-04-25T06:46:38.281Z,15.77
2019-04-25T06:48:11.631Z,15.74
2019-04-25T06:49:28.206Z,15.74
2019-04-25T06:50:34.156Z,15.74
2019-04-25T06:51:50.297Z,15.75
2019-04-25T06:52:55.635Z,15.78
2019-04-25T06:54:00.683Z,15.80
2019-04-25T06:55:06.992Z,15.81
2019-04-25T06:56:13.723Z,15.82
2019-04-25T06:57:18.660Z,15.83
2019-04-25T06:58:26.917Z,15.84
2019-04-25T06:59:30.483Z,15.85
2019-04-25T07:00:41.157Z,15.87
2019-04-25T07:01:43.993Z,15.91
2019-04-25T07:02:49.083Z,15.96
2019-04-25T07:03:54.585Z,16.03
2019-04-25T07:04:59.618Z,16.10
2019-04-25T07:06:04.795Z,16.16
2019-04-25T07:07:12.643Z,16.21
2019-04-25T07:08:16.906Z,16.27
2019-04-25T07:09:24.410Z,16.31
2019-04-25T07:10:29.782Z,16.36
2019-04-25T07:11:35.855Z,16.38
2019-04-25T07:12:41.643Z,16.39
2019-04-25T07:13:46.680Z,16.40
2019-04-25T07:14:51.683Z,16.44
2019-04-25T07:15:57.295Z,16.46
2019-04-25T07:17:04.221Z,16.49
2019-04-25T07:18:09.680Z,16.53
2019-04-25T07:19:17.513Z,16.57
2019-04-25T07:20:25.686Z,16.61
2019-04-25T07:21:30.205Z,16.65
2019-04-25T07:22:36.200Z,16.71
2019-04-25T07:23:43.505Z,16.75
2019-04-25T07:24:48.043Z,16.78
2019-04-25T07:26:03.741Z,16.80
2019-04-25T07:27:28.400Z,16.82
2019-04-25T07:28:44.311Z,16.84
2019-04-25T07:30:04.020Z,16.85
2019-04-25T07:31:33.142Z,16.84
2019-04-25T07:32:45.414Z,16.85
2019-04-25T07:33:54.781Z,16.85
2019-04-25T07:34:59.781Z,16.84
2019-04-25T07:36:04.937Z,16.84
2019-04-25T07:37:09.995Z,16.85
2019-04-25T07:38:15.122Z,16.85
2019-04-25T07:39:20.272Z,16.86
2019-04-25T07:40:26.123Z,16.86
2019-04-25T07:41:31.561Z,16.87
2019-04-25T07:42:36.965Z,16.90
2019-04-25T07:43:43.352Z,16.90
2019-04-25T07:44:52.690Z,16.92
2019-04-25T07:45:55.502Z,16.93
2019-04-25T07:47:00.834Z,16.93
2019-04-25T07:48:06.100Z,16.93
2019-04-25T07:49:11.287Z,16.94
2019-04-25T07:50:16.891Z,16.95
2019-04-25T07:51:23.615Z,16.96
2019-04-25T07:52:28.927Z,16.99
2019-04-25T07:53:35.145Z,17.02
2019-04-25T07:54:40.808Z,17.07
2019-04-25T07:55:45.918Z,17.11
2019-04-25T07:56:50.870Z,17.14
2019-04-25T07:57:55.923Z,17.18
2019-04-25T07:59:01.193Z,17.20
2019-04-25T08:00:13.113Z,17.19
2019-04-25T08:01:18.636Z,17.18
2019-04-25T08:02:23.989Z,17.18
2019-04-25T08:03:28.960Z,17.15
2019-04-25T08:04:35.750Z,17.14
2019-04-25T08:05:40.979Z,17.11
2019-04-25T08:06:46.011Z,17.09
2019-04-25T08:07:51.256Z,17.08
2019-04-25T08:08:56.267Z,17.06
2019-04-25T08:10:01.391Z,17.05
2019-04-25T08:11:07.893Z,17.04
2019-04-25T08:12:13.365Z,17.05
2019-04-25T08:13:19.049Z,17.05
2019-04-25T08:14:47.400Z,17.05
2019-04-25T08:15:54.834Z,17.07
2019-04-25T08:17:03.627Z,17.07
2019-04-25T08:18:09.859Z,17.09
2019-04-25T08:19:15.001Z,17.11
2019-04-25T08:20:20.282Z,17.13
2019-04-25T08:21:25.367Z,17.16
2019-04-25T08:22:30.363Z,17.15
2019-04-25T08:23:38.893Z,17.16
2019-04-25T08:24:44.386Z,17.16
2019-04-25T08:25:49.771Z,17.16
2019-04-25T08:26:54.931Z,17.16
2019-04-25T08:27:59.978Z,17.15
2019-04-25T08:29:05.222Z,17.15
2019-04-25T08:30:10.673Z,17.17
2019-04-25T08:31:15.985Z,17.23
2019-04-25T08:32:21.011Z,17.28
2019-04-25T08:33:26.190Z,17.32
2019-04-25T08:34:32.435Z,17.36
2019-04-25T08:35:38.222Z,17.40
2019-04-25T08:36:45.667Z,17.43
2019-04-25T08:37:51.036Z,17.45
2019-04-25T08:38:56.346Z,17.47
2019-04-25T08:40:01.434Z,17.48
2019-04-25T08:41:06.475Z,17.50
2019-04-25T08:42:13.027Z,17.53
2019-04-25T08:43:18.439Z,17.58
2019-04-25T08:44:24.105Z,17.64
2019-04-25T08:45:29.642Z,17.69
2019-04-25T08:46:36.601Z,17.77
2019-04-25T08:47:43.821Z,17.81
2019-04-25T08:49:06.430Z,17.85
2019-04-25T08:50:29.178Z,17.89
2019-04-25T08:51:34.914Z,17.93
2019-04-25T08:52:40.802Z,17.97
2019-04-25T08:53:55.521Z,17.96
2019-04-25T08:55:08.688Z,17.99
2019-04-25T08:56:17.244Z,18.03
2019-04-25T08:57:42.020Z,18.05
2019-04-25T08:59:07.930Z,18.06
2019-04-25T09:00:24.127Z,18.12
2019-04-25T09:01:40.590Z,18.16
2019-04-25T09:02:51.864Z,18.18
2019-04-25T09:04:13.853Z,18.21
2019-04-25T09:05:25.473Z,18.25
2019-04-25T09:06:30.601Z,18.31
2019-04-25T09:07:37.741Z,18.37
2019-04-25T09:08:45.199Z,18.41
2019-04-25T09:09:49.178Z,18.43
2019-04-25T09:10:54.195Z,18.47
2019-04-25T09:11:59.574Z,18.50
2019-04-25T09:13:05.083Z,18.55
2019-04-25T09:14:10.175Z,18.58
2019-04-25T09:15:15.836Z,18.62
2019-04-25T09:16:20.935Z,18.68
2019-04-25T09:17:25.935Z,18.70
2019-04-25T09:18:30.977Z,18.72
2019-04-25T09:19:37.166Z,18.74
2019-04-25T09:20:43.758Z,18.76
2019-04-25T09:21:49.684Z,18.80
2019-04-25T09:22:54.584Z,18.86
2019-04-25T09:23:59.893Z,18.91
2019-04-25T09:25:05.714Z,18.95
2019-04-25T09:26:10.794Z,19.01
2019-04-25T09:27:16.218Z,19.07
2019-04-25T09:28:21.186Z,19.12
2019-04-25T09:29:26.422Z,19.15
2019-04-25T09:30:31.510Z,19.18
2019-04-25T09:31:37.579Z,19.23
2019-04-25T09:32:44.583Z,19.24
2019-04-25T09:33:51.500Z,19.25
2019-04-25T09:34:56.651Z,19.24
2019-04-25T09:36:01.697Z,19.21
2019-04-25T09:37:07.153Z,19.17
2019-04-25T09:38:13.290Z,19.14
2019-04-25T09:39:35.615Z,19.12
2019-04-25T09:40:41.881Z,19.10
2019-04-25T09:41:46.953Z,19.08
2019-04-25T09:42:53.656Z,19.06
2019-04-25T09:44:04.437Z,19.08
2019-04-25T09:45:17.973Z,19.10
2019-04-25T09:46:27.297Z,19.14
2019-04-25T09:47:33.516Z,19.19
2019-04-25T09:49:44.883Z,19.30
2019-04-25T09:50:53.453Z,19.36
2019-04-25T09:52:06.991Z,19.39
2019-04-25T09:53:21.838Z,19.43
2019-04-25T09:54:38.057Z,19.49
2019-04-25T09:55:54.242Z,19.55
2019-04-25T09:57:06.068Z,19.58
2019-04-25T09:58:16.862Z,19.63
2019-04-25T09:59:28.019Z,19.66
2019-04-25T10:00:33.388Z,19.69
2019-04-25T10:01:40.200Z,19.72
2019-04-25T10:02:45.309Z,19.73
2019-04-25T10:03:50.289Z,19.76
2019-04-25T10:04:55.780Z,19.77
2019-04-25T10:06:00.792Z,19.79
2019-04-25T10:07:06.136Z,19.80
2019-04-25T10:08:11.234Z,19.81
2019-04-25T10:09:16.936Z,19.80
2019-04-25T10:10:22.130Z,19.81
2019-04-25T10:11:27.431Z,19.85
2019-04-25T10:12:34.078Z,19.87
2019-04-25T10:13:40.042Z,19.91
2019-04-25T10:15:16.121Z,19.94
2019-04-25T10:16:21.218Z,19.94
2019-04-25T10:17:26.299Z,19.94
2019-04-25T10:18:33.492Z,19.90
2019-04-25T10:19:39.107Z,19.86
2019-04-25T10:20:45.171Z,19.84
2019-04-25T10:21:53.428Z,19.82
2019-04-25T10:22:57.863Z,19.79
2019-04-25T10:24:03.579Z,19.76
2019-04-25T10:25:08.687Z,19.73
2019-04-25T10:26:13.821Z,19.72
2019-04-25T10:27:19.124Z,19.72
2019-04-25T10:28:24.763Z,19.72
2019-04-25T10:29:39.445Z,19.74
2019-04-25T10:30:37.032Z,19.78
2019-04-25T10:31:43.982Z,19.83
2019-04-25T10:32:49.580Z,19.91
2019-04-25T10:33:54.695Z,19.97
2019-04-25T10:34:59.701Z,20.00
2019-04-25T10:36:07.419Z,20.03
2019-04-25T10:37:13.802Z,20.04
2019-04-25T10:38:19.084Z,20.06
2019-04-25T10:39:24.259Z,20.09
2019-04-25T10:40:29.491Z,20.13
2019-04-25T10:41:35.856Z,20.17
2019-04-25T10:42:41.366Z,20.21
2019-04-25T10:43:48.123Z,20.25
2019-04-25T10:44:56.257Z,20.31
2019-04-25T10:45:59.925Z,20.34
2019-04-25T10:47:05.115Z,20.40
2019-04-25T10:48:10.237Z,20.45
2019-04-25T10:49:15.305Z,20.49
2019-04-25T10:50:20.630Z,20.52
2019-04-25T10:51:25.635Z,20.57
2019-04-25T10:52:30.620Z,20.59
2019-04-25T10:53:35.684Z,20.59
2019-04-25T10:54:41.241Z,20.62
2019-04-25T10:55:49.749Z,20.64
2019-04-25T10:56:54.866Z,20.67
2019-04-25T10:58:00.007Z,20.68
2019-04-25T10:59:05.091Z,20.70
2019-04-25T11:00:19.572Z,20.71
2019-04-25T11:01:24.669Z,20.71
2019-04-25T11:02:29.905Z,20.74
2019-04-25T11:03:42.072Z,20.75
2019-04-25T11:04:52.083Z,20.77
2019-04-25T11:05:57.291Z,20.82
2019-04-25T11:07:03.734Z,20.83
2019-04-25T11:08:08.776Z,20.85
2019-04-25T11:09:21.897Z,20.85
2019-04-25T11:10:26.979Z,20.88
2019-04-25T11:11:35.002Z,20.90
2019-04-25T11:12:41.083Z,20.94
2019-04-25T11:13:46.841Z,20.98
2019-04-25T11:14:53.302Z,21.01
2019-04-25T11:15:58.804Z,21.03
2019-04-25T11:17:03.824Z,21.07
2019-04-25T11:18:08.893Z,21.09
2019-04-25T11:19:15.325Z,21.13
2019-04-25T11:20:25.891Z,21.16
2019-04-25T11:21:30.987Z,21.19
2019-04-25T11:22:36.046Z,21.22
2019-04-25T11:23:41.438Z,21.22
2019-04-25T11:24:46.755Z,21.21
2019-04-25T11:25:54.159Z,21.25
2019-04-25T11:26:58.825Z,21.29
2019-04-25T11:28:05.844Z,21.36
2019-04-25T11:29:11.017Z,21.41
2019-04-25T11:30:17.460Z,21.45
2019-04-25T11:31:40.579Z,21.47
2019-04-25T11:32:45.774Z,21.48
2019-04-25T11:33:51.192Z,21.52
2019-04-25T11:34:57.277Z,21.56
2019-04-25T11:36:04.091Z,21.59
2019-04-25T11:37:09.342Z,21.57
2019-04-25T11:38:17.493Z,21.50
2019-04-25T11:39:40.278Z,21.45
2019-04-25T11:40:51.491Z,21.39
2019-04-25T11:41:56.553Z,21.36
2019-04-25T11:43:01.577Z,21.30
2019-04-25T11:44:07.070Z,21.25
2019-04-25T11:45:14.299Z,21.20
2019-04-25T11:46:19.695Z,21.14
2019-04-25T11:47:24.833Z,21.09
2019-04-25T11:48:29.837Z,21.04
2019-04-25T11:49:35.140Z,21.00
2019-04-25T11:50:40.649Z,20.95
2019-04-25T11:51:46.084Z,20.92
2019-04-25T11:52:51.341Z,20.90
2019-04-25T11:53:56.255Z,20.88
2019-04-25T11:55:01.348Z,20.85
2019-04-25T11:56:06.423Z,20.83
2019-04-25T11:57:11.543Z,20.82
2019-04-25T11:58:16.819Z,20.82
2019-04-25T11:59:23.419Z,20.82
2019-04-25T12:00:29.310Z,20.81
2019-04-25T12:01:34.404Z,20.80
2019-04-25T12:02:39.401Z,20.80
2019-04-25T12:03:46.621Z,20.80
2019-04-25T12:04:51.337Z,20.81
2019-04-25T12:05:56.303Z,20.79
2019-04-25T12:07:03.835Z,20.79
2019-04-25T12:08:08.932Z,20.80
2019-04-25T12:09:14.155Z,20.81
2019-04-25T12:10:19.686Z,20.81
2019-04-25T12:11:24.975Z,20.82
2019-04-25T12:12:30.092Z,20.83
2019-04-25T12:13:35.165Z,20.84
2019-04-25T12:14:40.427Z,20.87
2019-04-25T12:15:46.133Z,20.88
2019-04-25T12:16:53.221Z,20.90
2019-04-25T12:17:58.752Z,20.92
2019-04-25T12:19:04.820Z,20.94
2019-04-25T12:20:09.978Z,20.95
2019-04-25T12:21:15.670Z,20.97
2019-04-25T12:22:20.745Z,20.99
2019-04-25T12:23:25.764Z,21.00
2019-04-25T12:24:30.687Z,21.00
2019-04-25T12:25:35.736Z,21.02
2019-04-25T12:26:40.707Z,21.02
2019-04-25T12:27:48.585Z,21.06
2019-04-25T12:28:53.925Z,21.10
2019-04-25T12:29:59.512Z,21.15
2019-04-25T12:31:04.585Z,21.21
2019-04-25T12:32:09.947Z,21.28
2019-04-25T12:33:21.144Z,21.35
2019-04-25T12:34:21.615Z,21.43
2019-04-25T12:35:26.697Z,21.52
2019-04-25T12:36:31.829Z,21.61
2019-04-25T12:37:37.100Z,21.70
2019-04-25T12:38:43.887Z,21.76
2019-04-25T12:39:49.154Z,21.78
2019-04-25T12:40:55.322Z,21.79
2019-04-25T12:42:00.297Z,21.80
2019-04-25T12:43:05.401Z,21.80
2019-04-25T12:44:26.350Z,21.79
2019-04-25T12:45:47.320Z,21.80
2019-04-25T12:46:52.843Z,21.77
2019-04-25T12:47:59.858Z,21.76
2019-04-25T12:49:04.840Z,21.76
2019-04-25T12:50:10.297Z,21.76
2019-04-25T12:51:15.331Z,21.79
2019-04-25T12:52:20.405Z,21.80
2019-04-25T12:53:25.355Z,21.82
2019-04-25T12:54:30.461Z,21.82
2019-04-25T12:55:35.385Z,21.84
2019-04-25T12:56:40.574Z,21.85
2019-04-25T12:57:45.631Z,21.87
2019-04-25T12:58:51.529Z,21.88
2019-04-25T12:59:57.512Z,21.88
2019-04-25T13:01:04.292Z,21.89
2019-04-25T13:02:09.424Z,21.89
2019-04-25T13:03:14.464Z,21.89
2019-04-25T13:04:19.406Z,21.90
2019-04-25T13:05:24.532Z,21.89
2019-04-25T13:06:29.498Z,21.89
2019-04-25T13:07:34.404Z,21.89
2019-04-25T13:08:39.746Z,21.89
2019-04-25T13:09:45.718Z,21.91
2019-04-25T13:10:51.147Z,21.91
2019-04-25T13:11:56.387Z,21.92
2019-04-25T13:13:01.415Z,21.93
2019-04-25T13:14:06.814Z,21.91
2019-04-25T13:15:11.970Z,21.92
2019-04-25T13:16:16.955Z,21.93
2019-04-25T13:17:23.944Z,21.94
2019-04-25T13:18:28.821Z,21.98
2019-04-25T13:19:34.230Z,22.00
2019-04-25T13:20:39.422Z,22.02
2019-04-25T13:21:44.443Z,22.05
2019-04-25T13:22:49.429Z,22.09
2019-04-25T13:23:54.389Z,22.15
2019-04-25T13:24:59.586Z,22.22
2019-04-25T13:26:05.377Z,22.32
2019-04-25T13:27:21.430Z,22.42
2019-04-25T13:28:47.826Z,22.52
2019-04-25T13:30:14.079Z,22.60
2019-04-25T13:31:34.949Z,22.69
2019-04-25T13:32:53.807Z,22.73
2019-04-25T13:34:05.919Z,22.76
2019-04-25T13:35:17.558Z,22.80
2019-04-25T13:36:22.897Z,22.86
2019-04-25T13:37:27.873Z,22.91
2019-04-25T13:38:33.119Z,22.95
2019-04-25T13:39:38.596Z,23.00
2019-04-25T13:40:43.772Z,23.04
2019-04-25T13:41:48.803Z,23.08
2019-04-25T13:42:53.869Z,23.12
2019-04-25T13:43:58.968Z,23.12
2019-04-25T13:45:05.149Z,23.15
2019-04-25T13:46:11.126Z,23.18
2019-04-25T13:47:17.529Z,23.22
2019-04-25T13:48:25.541Z,23.25
2019-04-25T13:49:29.405Z,23.26
2019-04-25T13:50:34.600Z,23.27
2019-04-25T13:51:39.737Z,23.26
2019-04-25T13:52:44.820Z,23.27
2019-04-25T13:53:49.972Z,23.28
2019-04-25T13:54:55.178Z,23.31
2019-04-25T13:56:00.354Z,23.35
2019-04-25T13:57:05.535Z,23.40
2019-04-25T13:58:10.833Z,23.43
2019-04-25T13:59:16.059Z,23.47
2019-04-25T14:00:24.754Z,23.52
2019-04-25T14:01:30.199Z,23.56
2019-04-25T14:02:35.307Z,23.61
2019-04-25T14:03:40.414Z,23.66
2019-04-25T14:04:45.663Z,23.71
2019-04-25T14:05:50.747Z,23.74
2019-04-25T14:06:55.927Z,23.79
2019-04-25T14:08:01.178Z,23.82
2019-04-25T14:09:11.122Z,23.84
2019-04-25T14:10:16.341Z,23.84
2019-04-25T14:11:21.512Z,23.84
2019-04-25T14:12:28.099Z,23.86
2019-04-25T14:13:33.491Z,23.87
2019-04-25T14:14:38.803Z,23.89
2019-04-25T14:15:57.828Z,23.90
2019-04-25T14:17:20.169Z,23.92
2019-04-25T14:18:39.021Z,23.93
2019-04-25T14:20:01.771Z,23.94
2019-04-25T14:21:13.316Z,23.94
2019-04-25T14:22:18.483Z,23.92
2019-04-25T14:23:24.790Z,23.90
2019-04-25T14:24:32.313Z,23.89
2019-04-25T14:25:37.792Z,23.87
2019-04-25T14:26:42.916Z,23.86
2019-04-25T14:27:48.003Z,23.88
2019-04-25T14:28:54.157Z,23.87
2019-04-25T14:29:59.487Z,23.86
2019-04-25T14:31:04.734Z,23.84
2019-04-25T14:32:09.845Z,23.79